createdAt,value
2017-05-15T00:00:20.755Z,99.99
2017-05-15T00:01:01.347Z,99.99
2017-05-15T00:01:41.907Z,99.99
2017-05-15T00:02:22.478Z,99.99
2017-05-15T00:03:03.062Z,99.99
2017-05-15T00:03:43.621Z,99.99
2017-05-15T00:04:24.211Z,99.99
2017-05-15T00:05:04.825Z,99.76
2017-05-15T00:05:45.404Z,99.81
2017-05-15T00:06:25.981Z,99.99
2017-05-15T00:07:06.556Z,99.52
2017-05-15T00:07:47.132Z,99.04
2017-05-15T00:08:27.713Z,99.57
2017-05-15T00:09:08.376Z,98.9
2017-05-15T00:09:48.956Z,98.85
2017-05-15T00:10:29.537Z,98.66
2017-05-15T00:11:10.122Z,98.04
2017-05-15T00:11:50.720Z,97.94
2017-05-15T00:12:31.293Z,97.8
2017-05-15T00:13:11.909Z,97.37
2017-05-15T00:13:52.484Z,97.47
2017-05-15T00:14:33.101Z,96.32
2017-05-15T00:15:13.705Z,96.51
2017-05-15T00:15:54.292Z,96.7
2017-05-15T00:16:34.892Z,96.13
2017-05-15T00:17:15.464Z,96.03
2017-05-15T00:17:56.049Z,95.27
2017-05-15T00:18:36.661Z,95.36
2017-05-15T00:19:17.218Z,94.79
2017-05-15T00:19:57.795Z,94.79
2017-05-15T00:20:38.373Z,93.84
2017-05-15T00:21:18.991Z,93.65
2017-05-15T00:21:59.583Z,93.65
2017-05-15T00:22:40.164Z,93.07
2017-05-15T00:23:20.779Z,93.07
2017-05-15T00:24:01.306Z,92.02
2017-05-15T00:24:41.893Z,92.02
2017-05-15T00:25:22.470Z,92.21
2017-05-15T00:26:03.072Z,91.64
2017-05-15T00:26:43.638Z,91.16
2017-05-15T00:27:24.209Z,90.88
2017-05-15T00:28:04.787Z,90.45
2017-05-15T00:28:45.360Z,90.06
2017-05-15T00:29:25.941Z,89.59
2017-05-15T00:30:06.527Z,90.06
2017-05-15T00:30:47.108Z,89.59
2017-05-15T00:31:27.676Z,88.73
2017-05-15T00:32:08.284Z,88.82
2017-05-15T00:32:48.851Z,88.25
2017-05-15T00:33:29.427Z,88.44
2017-05-15T00:34:10.038Z,88.25
2017-05-15T00:34:50.585Z,87.68
2017-05-15T00:35:31.184Z,87.1
2017-05-15T00:36:11.772Z,87.01
2017-05-15T00:36:52.343Z,86.15
2017-05-15T00:37:32.906Z,85.86
2017-05-15T00:38:13.498Z,85.29
2017-05-15T00:38:54.068Z,85.48
2017-05-15T00:39:34.640Z,84.72
2017-05-15T00:40:15.210Z,84.62
2017-05-15T00:40:55.781Z,84.05
2017-05-15T00:41:36.374Z,83.57
2017-05-15T00:42:16.940Z,83
2017-05-15T00:42:57.504Z,83.38
2017-05-15T00:43:38.073Z,82.71
2017-05-15T00:44:18.643Z,82.04
2017-05-15T00:44:59.235Z,81.66
2017-05-15T00:45:39.809Z,81.09
2017-05-15T00:46:20.381Z,80.41
2017-05-15T00:47:00.967Z,80.22
2017-05-15T00:47:41.568Z,79.94
2017-05-15T00:48:22.156Z,79.36
2017-05-15T00:49:02.710Z,79.27
2017-05-15T00:49:43.283Z,78.51
2017-05-15T00:50:23.850Z,77.94
2017-05-15T00:51:04.426Z,77.94
2017-05-15T00:51:45.081Z,77.36
2017-05-15T00:52:25.660Z,77.26
2017-05-15T00:53:06.215Z,77.08
2017-05-15T00:53:46.818Z,76.79
2017-05-15T00:54:27.436Z,76.4
2017-05-15T00:55:07.969Z,76.31
2017-05-15T00:55:48.542Z,76.12
2017-05-15T00:56:29.134Z,75.83
2017-05-15T00:57:09.707Z,75.64
2017-05-15T00:57:50.280Z,75.26
2017-05-15T00:58:30.852Z,75.45
2017-05-15T00:59:11.425Z,74.78
2017-05-15T00:59:51.999Z,74.78
2017-05-15T01:00:32.585Z,74.78
2017-05-15T01:01:13.175Z,74.59
2017-05-15T01:01:53.750Z,73.92
2017-05-15T01:02:34.315Z,74.11
2017-05-15T01:03:14.901Z,74.02
2017-05-15T01:03:55.492Z,73.54
2017-05-15T01:04:36.058Z,73.83
2017-05-15T01:05:16.637Z,73.54
2017-05-15T01:05:57.230Z,73.44
2017-05-15T01:06:37.813Z,72.97
2017-05-15T01:07:18.364Z,72.97
2017-05-15T01:07:58.954Z,72.68
2017-05-15T01:08:39.544Z,72.49
2017-05-15T01:09:20.126Z,72.39
2017-05-15T01:10:00.684Z,72.49
2017-05-15T01:10:41.277Z,72.01
2017-05-15T01:11:21.854Z,72.01
2017-05-15T01:12:02.439Z,71.92
2017-05-15T01:12:43.031Z,71.34
2017-05-15T01:13:23.636Z,71.34
2017-05-15T01:14:04.176Z,71.44
2017-05-15T01:14:44.742Z,71.63
2017-05-15T01:15:25.324Z,71.15
2017-05-15T01:16:05.895Z,71.15
2017-05-15T01:16:46.464Z,70.87
2017-05-15T01:17:27.079Z,71.34
2017-05-15T01:18:07.636Z,71.25
2017-05-15T01:18:48.201Z,71.25
2017-05-15T01:19:28.780Z,71.06
2017-05-15T01:20:09.352Z,71.15
2017-05-15T01:20:49.931Z,70.67
2017-05-15T01:21:30.513Z,70.67
2017-05-15T01:22:11.081Z,70.58
2017-05-15T01:22:51.661Z,70.29
2017-05-15T01:23:32.235Z,70.48
2017-05-15T01:24:12.807Z,70.48
2017-05-15T01:24:53.409Z,70.2
2017-05-15T01:25:33.987Z,69.91
2017-05-15T01:26:14.556Z,69.91
2017-05-15T01:26:55.142Z,69.91
2017-05-15T01:27:35.709Z,69.72
2017-05-15T01:28:16.281Z,70.1
2017-05-15T01:28:56.860Z,69.91
2017-05-15T01:29:37.445Z,70.01
2017-05-15T01:30:18.022Z,70.1
2017-05-15T01:30:58.600Z,69.72
2017-05-15T01:31:39.188Z,69.62
2017-05-15T01:32:19.756Z,69.53
2017-05-15T01:33:00.342Z,69.62
2017-05-15T01:33:40.973Z,69.62
2017-05-15T01:34:21.562Z,69.34
2017-05-15T01:35:02.159Z,69.34
2017-05-15T01:35:42.733Z,68.96
2017-05-15T01:36:23.515Z,68.76
2017-05-15T01:37:04.052Z,68.92
2017-05-15T01:37:44.631Z,68.73
2017-05-15T01:38:25.242Z,68.82
2017-05-15T01:39:05.837Z,68.54
2017-05-15T01:39:46.416Z,68.54
2017-05-15T01:40:27.018Z,68.06
2017-05-15T01:41:07.588Z,67.68
2017-05-15T01:41:48.176Z,67.49
2017-05-15T01:42:28.758Z,67.4
2017-05-15T01:43:09.331Z,67.4
2017-05-15T01:43:49.902Z,66.92
2017-05-15T01:44:30.506Z,67.01
2017-05-15T01:45:11.069Z,66.63
2017-05-15T01:45:51.678Z,66.53
2017-05-15T01:46:32.258Z,66.25
2017-05-15T01:47:12.841Z,66.25
2017-05-15T01:47:53.416Z,65.87
2017-05-15T01:48:33.986Z,66.15
2017-05-15T01:49:14.570Z,66.44
2017-05-15T01:49:55.158Z,65.67
2017-05-15T01:50:35.731Z,65.58
2017-05-15T01:51:16.367Z,65.58
2017-05-15T01:51:56.973Z,65.67
2017-05-15T01:52:37.560Z,65.58
2017-05-15T01:53:18.146Z,65.39
2017-05-15T01:53:58.735Z,65.01
2017-05-15T01:54:39.318Z,64.81
2017-05-15T01:55:19.903Z,64.91
2017-05-15T01:56:00.480Z,64.43
2017-05-15T01:56:41.053Z,64.53
2017-05-15T01:57:21.654Z,64.34
2017-05-15T01:58:02.249Z,63.96
2017-05-15T01:58:42.838Z,63.48
2017-05-15T01:59:23.411Z,63.67
2017-05-15T02:00:03.992Z,63.57
2017-05-15T02:00:44.554Z,63.29
2017-05-15T02:01:25.138Z,62.81
2017-05-15T02:02:05.715Z,63.1
2017-05-15T02:02:46.307Z,62.81
2017-05-15T02:03:26.894Z,63.2
2017-05-15T02:04:07.491Z,63
2017-05-15T02:04:48.068Z,62.81
2017-05-15T02:05:28.649Z,62.52
2017-05-15T02:06:09.239Z,62.52
2017-05-15T02:06:49.807Z,62.43
2017-05-15T02:07:30.378Z,62.24
2017-05-15T02:08:10.945Z,62.43
2017-05-15T02:08:51.523Z,62.34
2017-05-15T02:09:32.097Z,62.15
2017-05-15T02:10:12.664Z,62.34
2017-05-15T02:10:53.267Z,62.05
2017-05-15T02:11:33.843Z,61.86
2017-05-15T02:12:14.422Z,62.24
2017-05-15T02:12:55.017Z,62.15
2017-05-15T02:13:35.591Z,61.76
2017-05-15T02:14:16.179Z,61.57
2017-05-15T02:14:56.742Z,61.76
2017-05-15T02:15:37.349Z,61.47
2017-05-15T02:16:17.881Z,61.57
2017-05-15T02:16:58.452Z,61.19
2017-05-15T02:17:39.021Z,61.29
2017-05-15T02:18:19.603Z,60.71
2017-05-15T02:19:00.190Z,61
2017-05-15T02:19:40.769Z,60.9
2017-05-15T02:20:21.354Z,60.81
2017-05-15T02:21:01.919Z,60.71
2017-05-15T02:21:42.503Z,60.81
2017-05-15T02:22:23.073Z,60.81
2017-05-15T02:23:03.646Z,60.33
2017-05-15T02:23:44.231Z,60.52
2017-05-15T02:24:24.802Z,59.95
2017-05-15T02:25:05.382Z,60.24
2017-05-15T02:25:45.966Z,59.95
2017-05-15T02:26:26.530Z,60.04
2017-05-15T02:27:07.100Z,60.14
2017-05-15T02:27:47.678Z,59.66
2017-05-15T02:28:28.273Z,59.95
2017-05-15T02:29:08.845Z,59.85
2017-05-15T02:29:49.405Z,59.76
2017-05-15T02:30:29.978Z,59.47
2017-05-15T02:31:10.552Z,59.56
2017-05-15T02:31:51.143Z,59.56
2017-05-15T02:32:31.720Z,59.76
2017-05-15T02:33:12.290Z,59.66
2017-05-15T02:33:52.878Z,59.66
2017-05-15T02:34:33.466Z,59.56
2017-05-15T02:35:14.044Z,59.47
2017-05-15T02:35:54.614Z,59.56
2017-05-15T02:36:35.190Z,59.66
2017-05-15T02:37:15.761Z,59.85
2017-05-15T02:37:56.355Z,59.76
2017-05-15T02:38:36.917Z,59.76
2017-05-15T02:39:17.508Z,59.66
2017-05-15T02:39:58.050Z,59.76
2017-05-15T02:40:38.633Z,59.76
2017-05-15T02:41:19.204Z,60.14
2017-05-15T02:41:59.780Z,60.33
2017-05-15T02:42:40.403Z,60.24
2017-05-15T02:43:20.992Z,60.14
2017-05-15T02:44:01.577Z,60.14
2017-05-15T02:44:42.175Z,60.14
2017-05-15T02:45:22.748Z,60.07
2017-05-15T02:46:03.327Z,59.95
2017-05-15T02:46:43.911Z,60.04
2017-05-15T02:47:24.492Z,60.24
2017-05-15T02:48:05.075Z,60.04
2017-05-15T02:48:45.642Z,60.04
2017-05-15T02:49:26.254Z,60.14
2017-05-15T02:50:06.865Z,60.42
2017-05-15T02:50:47.428Z,60.52
2017-05-15T02:51:28.011Z,60.33
2017-05-15T02:52:08.598Z,60.52
2017-05-15T02:52:49.171Z,60.24
2017-05-15T02:53:29.763Z,60.33
2017-05-15T02:54:10.351Z,60.42
2017-05-15T02:54:50.921Z,60.14
2017-05-15T02:55:31.490Z,60.71
2017-05-15T02:56:12.070Z,60.61
2017-05-15T02:56:52.665Z,60.81
2017-05-15T02:57:33.258Z,60.71
2017-05-15T02:58:13.834Z,60.81
2017-05-15T02:58:54.417Z,60.61
2017-05-15T02:59:34.983Z,61
2017-05-15T03:00:15.562Z,60.9
2017-05-15T03:00:56.180Z,61
2017-05-15T03:01:36.769Z,60.81
2017-05-15T03:02:17.335Z,60.71
2017-05-15T03:02:57.927Z,61.19
2017-05-15T03:03:38.499Z,60.9
2017-05-15T03:04:19.077Z,60.71
2017-05-15T03:04:59.658Z,60.52
2017-05-15T03:05:40.248Z,61
2017-05-15T03:06:20.845Z,60.9
2017-05-15T03:07:01.457Z,60.81
2017-05-15T03:07:42.068Z,60.9
2017-05-15T03:08:22.662Z,61.1
2017-05-15T03:09:03.679Z,60.81
2017-05-15T03:09:44.218Z,61
2017-05-15T03:10:24.808Z,60.9
2017-05-15T03:11:05.387Z,60.52
2017-05-15T03:11:45.976Z,60.61
2017-05-15T03:12:26.537Z,60.71
2017-05-15T03:13:07.113Z,60.81
2017-05-15T03:13:47.698Z,60.52
2017-05-15T03:14:28.283Z,60.61
2017-05-15T03:15:08.882Z,60.81
2017-05-15T03:15:49.459Z,60.61
2017-05-15T03:16:30.062Z,60.81
2017-05-15T03:17:10.622Z,60.81
2017-05-15T03:17:51.189Z,60.81
2017-05-15T03:18:31.805Z,60.52
2017-05-15T03:19:12.374Z,60.71
2017-05-15T03:19:52.942Z,60.71
2017-05-15T03:20:33.526Z,61
2017-05-15T03:21:14.091Z,60.9
2017-05-15T03:21:54.658Z,61.1
2017-05-15T03:22:35.241Z,60.81
2017-05-15T03:23:15.827Z,60.81
2017-05-15T03:23:56.448Z,60.81
2017-05-15T03:24:37.048Z,60.81
2017-05-15T03:25:17.634Z,60.81
2017-05-15T03:25:58.227Z,60.9
2017-05-15T03:26:38.797Z,60.71
2017-05-15T03:27:19.380Z,60.71
2017-05-15T03:27:59.959Z,60.81
2017-05-15T03:28:40.545Z,60.71
2017-05-15T03:29:21.126Z,60.81
2017-05-15T03:30:01.703Z,60.9
2017-05-15T03:30:42.288Z,60.71
2017-05-15T03:31:22.882Z,60.71
2017-05-15T03:32:03.465Z,61.1
2017-05-15T03:32:44.099Z,61
2017-05-15T03:33:24.716Z,60.81
2017-05-15T03:34:05.297Z,61
2017-05-15T03:34:45.865Z,61.1
2017-05-15T03:35:26.487Z,61
2017-05-15T03:36:07.125Z,60.61
2017-05-15T03:36:47.705Z,61
2017-05-15T03:37:28.280Z,61
2017-05-15T03:38:08.869Z,60.9
2017-05-15T03:38:49.463Z,60.9
2017-05-15T03:39:30.039Z,61
2017-05-15T03:40:10.619Z,60.78
2017-05-15T03:40:51.201Z,60.71
2017-05-15T03:41:31.751Z,60.97
2017-05-15T03:42:12.325Z,60.68
2017-05-15T03:42:52.929Z,60.87
2017-05-15T03:43:33.538Z,61.07
2017-05-15T03:44:14.125Z,61.07
2017-05-15T03:44:54.708Z,60.68
2017-05-15T03:45:35.319Z,60.97
2017-05-15T03:46:15.917Z,60.68
2017-05-15T03:46:56.501Z,60.78
2017-05-15T03:47:37.121Z,60.58
2017-05-15T03:48:17.708Z,60.78
2017-05-15T03:48:58.300Z,60.3
2017-05-15T03:49:38.867Z,60.21
2017-05-15T03:50:19.436Z,60.49
2017-05-15T03:51:00.013Z,59.92
2017-05-15T03:51:40.602Z,60.11
2017-05-15T03:52:21.186Z,60.3
2017-05-15T03:53:01.765Z,60.02
2017-05-15T03:53:42.377Z,60.02
2017-05-15T03:54:22.972Z,60.11
2017-05-15T03:55:03.592Z,60.11
2017-05-15T03:55:44.180Z,60.21
2017-05-15T03:56:24.759Z,60.02
2017-05-15T03:57:05.379Z,59.7
2017-05-15T03:57:45.938Z,59.41
2017-05-15T03:58:26.526Z,59.41
2017-05-15T03:59:07.108Z,59.6
2017-05-15T03:59:47.673Z,59.6
2017-05-15T04:00:28.284Z,59.41
2017-05-15T04:01:08.887Z,59.79
2017-05-15T04:01:49.500Z,59.03
2017-05-15T04:02:30.089Z,59.22
2017-05-15T04:03:10.654Z,59.51
2017-05-15T04:03:51.275Z,58.84
2017-05-15T04:04:31.879Z,59.41
2017-05-15T04:05:12.469Z,59.12
2017-05-15T04:05:53.057Z,58.55
2017-05-15T04:06:33.644Z,58.36
2017-05-15T04:07:14.225Z,58.46
2017-05-15T04:07:54.819Z,58.55
2017-05-15T04:08:35.406Z,58.26
2017-05-15T04:09:15.994Z,57.89
2017-05-15T04:09:56.595Z,58.17
2017-05-15T04:10:37.166Z,57.89
2017-05-15T04:11:17.774Z,57.6
2017-05-15T04:11:58.359Z,57.41
2017-05-15T04:12:38.943Z,57.22
2017-05-15T04:13:19.518Z,57.22
2017-05-15T04:14:00.107Z,57.31
2017-05-15T04:14:40.693Z,57.12
2017-05-15T04:15:21.265Z,57.31
2017-05-15T04:16:01.838Z,56.93
2017-05-15T04:16:42.419Z,56.84
2017-05-15T04:17:22.997Z,56.65
2017-05-15T04:18:03.586Z,56.93
2017-05-15T04:18:44.174Z,56.55
2017-05-15T04:19:24.754Z,56.26
2017-05-15T04:20:05.312Z,56.26
2017-05-15T04:20:45.925Z,56.36
2017-05-15T04:21:26.507Z,56.36
2017-05-15T04:22:07.086Z,55.98
2017-05-15T04:22:47.675Z,56.17
2017-05-15T04:23:28.244Z,55.69
2017-05-15T04:24:08.823Z,55.79
2017-05-15T04:24:49.417Z,55.41
2017-05-15T04:25:30.009Z,55.02
2017-05-15T04:26:10.610Z,54.74
2017-05-15T04:26:51.258Z,54.83
2017-05-15T04:27:31.808Z,54.36
2017-05-15T04:28:12.408Z,54.36
2017-05-15T04:28:52.989Z,54.55
2017-05-15T04:29:33.533Z,54.07
2017-05-15T04:30:14.116Z,54.17
2017-05-15T04:30:54.688Z,54.17
2017-05-15T04:31:35.267Z,53.88
2017-05-15T04:32:16.032Z,54.07
2017-05-15T04:32:56.581Z,53.88
2017-05-15T04:33:37.151Z,54.07
2017-05-15T04:34:17.727Z,53.78
2017-05-15T04:34:58.310Z,53.59
2017-05-15T04:35:38.880Z,53.69
2017-05-15T04:36:19.479Z,53.41
2017-05-15T04:37:00.099Z,53.5
2017-05-15T04:37:40.662Z,53.21
2017-05-15T04:38:21.242Z,53.5
2017-05-15T04:39:01.815Z,53.5
2017-05-15T04:39:42.399Z,52.92
2017-05-15T04:40:22.980Z,53.12
2017-05-15T04:41:03.572Z,52.83
2017-05-15T04:41:44.153Z,52.83
2017-05-15T04:42:24.759Z,52.92
2017-05-15T04:43:05.391Z,52.83
2017-05-15T04:43:45.986Z,52.83
2017-05-15T04:44:26.558Z,52.83
2017-05-15T04:45:07.133Z,52.73
2017-05-15T04:45:50.992Z,52.92
2017-05-15T04:46:31.579Z,52.92
2017-05-15T04:47:12.155Z,53.12
2017-05-15T04:47:52.756Z,53.12
2017-05-15T04:48:33.358Z,52.92
2017-05-15T04:49:13.932Z,52.73
2017-05-15T04:49:54.504Z,52.92
2017-05-15T04:50:35.090Z,52.45
2017-05-15T04:51:15.715Z,52.64
2017-05-15T04:51:56.310Z,52.55
2017-05-15T04:52:36.903Z,52.45
2017-05-15T04:53:17.514Z,52.55
2017-05-15T04:53:58.105Z,52.73
2017-05-15T04:54:38.697Z,52.73
2017-05-15T04:55:19.269Z,52.92
2017-05-15T04:55:59.858Z,52.45
2017-05-15T04:56:40.478Z,52.64
2017-05-15T04:57:21.074Z,52.64
2017-05-15T04:58:01.656Z,52.73
2017-05-15T04:58:42.238Z,52.73
2017-05-15T04:59:22.821Z,52.55
2017-05-15T05:00:03.436Z,52.64
2017-05-15T05:00:43.998Z,52.73
2017-05-15T05:01:24.578Z,52.64
2017-05-15T05:02:05.198Z,52.55
2017-05-15T05:02:45.782Z,52.83
2017-05-15T05:03:26.396Z,52.64
2017-05-15T05:04:06.994Z,52.64
2017-05-15T05:04:47.744Z,52.64
2017-05-15T05:05:28.279Z,52.95
2017-05-15T05:06:08.881Z,52.95
2017-05-15T05:06:49.469Z,52.92
2017-05-15T05:07:30.040Z,52.95
2017-05-15T05:08:10.609Z,53.05
2017-05-15T05:08:51.177Z,52.95
2017-05-15T05:09:31.792Z,53.14
2017-05-15T05:10:12.320Z,52.86
2017-05-15T05:10:52.904Z,52.86
2017-05-15T05:11:33.492Z,53.05
2017-05-15T05:12:14.070Z,52.76
2017-05-15T05:12:54.700Z,53.14
2017-05-15T05:13:35.272Z,52.95
2017-05-15T05:14:15.871Z,53.43
2017-05-15T05:14:56.452Z,53.24
2017-05-15T05:15:37.028Z,53.33
2017-05-15T05:16:17.622Z,53.81
2017-05-15T05:16:58.216Z,53.53
2017-05-15T05:17:38.800Z,53.81
2017-05-15T05:18:19.370Z,54.1
2017-05-15T05:18:59.984Z,53.91
2017-05-15T05:19:40.582Z,53.93
2017-05-15T05:20:21.190Z,54.5
2017-05-15T05:21:01.875Z,54.5
2017-05-15T05:21:42.459Z,54.32
2017-05-15T05:22:23.083Z,54.41
2017-05-15T05:23:03.721Z,54.89
2017-05-15T05:23:44.475Z,54.7
2017-05-15T05:24:25.251Z,54.89
2017-05-15T05:25:05.914Z,55.27
2017-05-15T05:25:46.487Z,55.18
2017-05-15T05:26:27.065Z,55.18
2017-05-15T05:27:07.645Z,54.99
2017-05-15T05:27:48.226Z,55.75
2017-05-15T05:28:28.810Z,56.41
2017-05-15T05:29:09.391Z,56.41
2017-05-15T05:29:49.997Z,56.04
2017-05-15T05:30:30.576Z,56.32
2017-05-15T05:31:11.156Z,57.09
2017-05-15T05:31:51.734Z,56.99
2017-05-15T05:32:32.332Z,57.37
2017-05-15T05:33:12.967Z,57.94
2017-05-15T05:33:53.518Z,58.51
2017-05-15T05:34:34.086Z,59.38
2017-05-15T05:35:14.665Z,59.38
2017-05-15T05:35:55.290Z,59.66
2017-05-15T05:36:35.857Z,59.85
2017-05-15T05:37:16.439Z,60.42
2017-05-15T05:37:57.016Z,61.1
2017-05-15T05:38:37.597Z,61.29
2017-05-15T05:39:18.194Z,61.19
2017-05-15T05:39:58.770Z,61.95
2017-05-15T05:40:39.351Z,62.24
2017-05-15T05:41:19.932Z,62.62
2017-05-15T05:42:00.534Z,62.91
2017-05-15T05:42:41.117Z,63.39
2017-05-15T05:43:21.695Z,63.48
2017-05-15T05:44:02.279Z,63.86
2017-05-15T05:44:42.850Z,64.53
2017-05-15T05:45:23.432Z,64.53
2017-05-15T05:46:04.006Z,64.72
2017-05-15T05:46:44.613Z,65.1
2017-05-15T05:47:25.180Z,65.3
2017-05-15T05:48:05.756Z,65.39
2017-05-15T05:48:46.344Z,65.87
2017-05-15T05:49:26.922Z,65.96
2017-05-15T05:50:07.517Z,66.44
2017-05-15T05:50:48.099Z,66.63
2017-05-15T05:51:28.677Z,66.82
2017-05-15T05:52:09.273Z,66.44
2017-05-15T05:52:49.853Z,66.72
2017-05-15T05:53:30.428Z,67.01
2017-05-15T05:54:11.264Z,66.92
2017-05-15T05:54:51.980Z,67.4
2017-05-15T05:55:32.568Z,67.49
2017-05-15T05:56:13.149Z,68.06
2017-05-15T05:56:53.780Z,68.06
2017-05-15T05:57:34.368Z,68.44
2017-05-15T05:58:14.948Z,68.35
2017-05-15T05:58:55.527Z,68.63
2017-05-15T05:59:36.108Z,68.82
2017-05-15T06:00:16.696Z,68.92
2017-05-15T06:00:57.295Z,69.78
2017-05-15T06:01:37.860Z,70.73
2017-05-15T06:02:18.450Z,70.54
2017-05-15T06:02:59.035Z,71.21
2017-05-15T06:03:39.619Z,71.92
2017-05-15T06:04:20.185Z,71.98
2017-05-15T06:05:00.798Z,72.49
2017-05-15T06:05:41.378Z,72.3
2017-05-15T06:06:21.939Z,73.25
2017-05-15T06:07:02.509Z,73.63
2017-05-15T06:07:43.091Z,73.83
2017-05-15T06:08:23.674Z,74.4
2017-05-15T06:09:04.246Z,74.69
2017-05-15T06:09:44.816Z,75.45
2017-05-15T06:10:25.393Z,75.26
2017-05-15T06:11:05.962Z,75.83
2017-05-15T06:11:46.533Z,76.21
2017-05-15T06:12:27.107Z,76.98
2017-05-15T06:13:07.680Z,77.59
2017-05-15T06:13:48.255Z,77.97
2017-05-15T06:14:28.845Z,78.26
2017-05-15T06:15:09.431Z,79.41
2017-05-15T06:15:50.003Z,79.22
2017-05-15T06:16:30.594Z,80.07
2017-05-15T06:17:11.183Z,80.55
2017-05-15T06:17:51.765Z,81.41
2017-05-15T06:18:32.341Z,81.22
2017-05-15T06:19:12.917Z,81.51
2017-05-15T06:19:53.490Z,81.99
2017-05-15T06:20:34.065Z,82.37
2017-05-15T06:21:14.639Z,82.75
2017-05-15T06:21:55.217Z,82.98
2017-05-15T06:22:35.812Z,83.8
2017-05-15T06:23:16.374Z,83.75
2017-05-15T06:23:56.951Z,84.23
2017-05-15T06:24:37.527Z,84.52
2017-05-15T06:25:18.103Z,85.28
2017-05-15T06:25:58.676Z,85.94
2017-05-15T06:26:41.060Z,87.19
2017-05-15T06:27:21.648Z,87.29
2017-05-15T06:28:02.218Z,87.48
2017-05-15T06:28:42.809Z,88.43
2017-05-15T06:29:23.436Z,88.91
2017-05-15T06:30:04.006Z,89.77
2017-05-15T06:30:44.576Z,89.77
2017-05-15T06:31:25.147Z,90.25
2017-05-15T06:32:05.727Z,90.25
2017-05-15T06:32:46.310Z,90.73
2017-05-15T06:33:26.901Z,91.3
2017-05-15T06:34:07.480Z,91.97
2017-05-15T06:34:48.149Z,92.83
2017-05-15T06:35:28.738Z,92.07
2017-05-15T06:36:09.323Z,92.74
2017-05-15T06:36:49.901Z,93.5
2017-05-15T06:37:30.487Z,93.4
2017-05-15T06:38:11.074Z,93.79
2017-05-15T06:38:51.653Z,94.17
2017-05-15T06:39:32.229Z,94.26
2017-05-15T06:40:12.814Z,94.74
2017-05-15T06:40:54.299Z,94.93
2017-05-15T06:41:34.872Z,95.41
2017-05-15T06:42:15.473Z,95.65
2017-05-15T06:42:56.065Z,95.46
2017-05-15T06:43:36.635Z,96.32
2017-05-15T06:44:17.204Z,96.42
2017-05-15T06:44:57.782Z,97.18
2017-05-15T06:45:38.382Z,96.99
2017-05-15T06:46:18.945Z,96.8
2017-05-15T06:46:59.537Z,97.75
2017-05-15T06:47:40.116Z,98.24
2017-05-15T06:48:20.685Z,98.61
2017-05-15T06:49:01.254Z,99.48
2017-05-15T06:49:41.833Z,99.86
2017-05-15T06:50:22.421Z,99.99
2017-05-15T06:51:02.991Z,99.99
2017-05-15T06:51:43.566Z,99.99
2017-05-15T06:52:24.154Z,99.99
2017-05-15T06:53:04.725Z,99.99
2017-05-15T06:53:45.300Z,99.99
2017-05-15T06:54:25.879Z,99.99
2017-05-15T06:55:06.477Z,99.99
2017-05-15T06:55:47.052Z,99.99
2017-05-15T06:56:27.656Z,99.99
2017-05-15T06:57:08.254Z,99.99
2017-05-15T06:57:48.835Z,99.99
2017-05-15T06:58:29.441Z,99.99
2017-05-15T06:59:10.014Z,99.99
2017-05-15T06:59:50.611Z,99.99
2017-05-15T07:00:31.197Z,99.99
2017-05-15T07:01:11.778Z,99.99
2017-05-15T07:01:52.363Z,99.99
2017-05-15T07:02:32.944Z,99.99
2017-05-15T07:03:13.536Z,99.99
2017-05-15T07:03:54.111Z,99.99
2017-05-15T07:04:34.684Z,99.99
2017-05-15T07:05:15.267Z,99.99
2017-05-15T07:05:55.854Z,99.99
2017-05-15T07:06:36.431Z,99.99
2017-05-15T07:07:17.010Z,99.99
2017-05-15T07:07:57.625Z,99.99
2017-05-15T07:08:38.199Z,99.99
2017-05-15T07:09:18.793Z,99.99
2017-05-15T07:09:59.377Z,99.99
2017-05-15T07:10:39.965Z,99.99
2017-05-15T07:11:20.545Z,99.99
2017-05-15T07:12:01.109Z,99.99
2017-05-15T07:12:41.680Z,99.99
2017-05-15T07:13:22.252Z,99.99
2017-05-15T07:14:02.828Z,99.99
2017-05-15T07:14:43.410Z,99.99
2017-05-15T07:15:23.989Z,99.99
2017-05-15T07:16:04.570Z,99.99
2017-05-15T07:16:45.154Z,99.99
2017-05-15T07:17:25.761Z,99.99
2017-05-15T07:18:06.331Z,99.99
2017-05-15T07:18:46.933Z,99.99
2017-05-15T07:19:27.551Z,99.99
2017-05-15T07:20:08.123Z,99.99
2017-05-15T07:20:48.693Z,99.99
2017-05-15T07:21:29.263Z,99.99
2017-05-15T07:22:09.868Z,99.99
2017-05-15T07:22:50.441Z,99.99
2017-05-15T07:23:31.020Z,99.99
2017-05-15T07:24:11.597Z,99.99
2017-05-15T07:24:52.182Z,99.99
2017-05-15T07:25:32.772Z,99.99
2017-05-15T07:26:13.343Z,99.99
2017-05-15T07:26:53.978Z,99.99
2017-05-15T07:27:34.552Z,99.99
2017-05-15T07:28:15.138Z,99.99
2017-05-15T07:28:55.703Z,99.99
2017-05-15T07:29:36.279Z,99.99
2017-05-15T07:30:16.856Z,99.99
2017-05-15T07:30:57.445Z,99.99
2017-05-15T07:31:38.072Z,99.99
2017-05-15T07:32:18.619Z,99.99
2017-05-15T07:32:59.202Z,99.99
2017-05-15T07:33:39.789Z,99.99
2017-05-15T07:34:20.369Z,99.99
2017-05-15T07:35:00.948Z,99.99
2017-05-15T07:35:41.514Z,99.99
2017-05-15T07:36:22.092Z,99.99
2017-05-15T07:37:02.679Z,99.99
2017-05-15T07:37:43.298Z,99.99
2017-05-15T07:38:23.870Z,99.99
2017-05-15T07:39:04.474Z,99.99
2017-05-15T07:39:45.072Z,99.99
2017-05-15T07:40:25.656Z,99.99
2017-05-15T07:41:06.261Z,99.99
2017-05-15T07:41:46.841Z,99.99
2017-05-15T07:42:27.424Z,99.99
2017-05-15T07:43:07.999Z,99.99
2017-05-15T07:43:48.579Z,99.99
2017-05-15T07:44:29.167Z,99.99
2017-05-15T07:45:09.745Z,99.99
2017-05-15T07:45:50.376Z,99.99
2017-05-15T07:46:30.965Z,99.99
2017-05-15T07:47:11.529Z,99.99
2017-05-15T07:47:52.104Z,99.99
2017-05-15T07:48:32.676Z,99.99
2017-05-15T07:49:13.270Z,99.99
2017-05-15T07:49:53.852Z,99.99
2017-05-15T07:50:34.440Z,99.99
2017-05-15T07:51:15.026Z,99.99
2017-05-15T07:51:55.647Z,99.99
2017-05-15T07:52:36.224Z,99.99
2017-05-15T07:53:16.798Z,99.99
2017-05-15T07:53:57.368Z,99.99
2017-05-15T07:54:37.949Z,99.99
2017-05-15T07:55:18.552Z,99.99
2017-05-15T07:55:59.154Z,99.99
2017-05-15T07:56:39.735Z,99.99
2017-05-15T07:57:20.336Z,99.99
2017-05-15T07:58:00.882Z,99.99
2017-05-15T07:58:41.472Z,99.99
2017-05-15T07:59:22.072Z,99.99
2017-05-15T08:00:02.669Z,99.99
2017-05-15T08:00:43.258Z,99.99
2017-05-15T08:01:23.839Z,99.99
2017-05-15T08:02:04.420Z,99.99
2017-05-15T08:02:45.001Z,99.99
2017-05-15T08:03:25.596Z,99.99
2017-05-15T08:04:06.171Z,99.99
2017-05-15T08:04:46.741Z,99.99
2017-05-15T08:05:27.317Z,99.99
2017-05-15T08:06:07.891Z,99.99
2017-05-15T08:06:48.488Z,99.99
2017-05-15T08:07:29.062Z,99.99
2017-05-15T08:08:09.641Z,99.99
2017-05-15T08:08:50.236Z,99.99
2017-05-15T08:09:30.825Z,99.99
2017-05-15T08:10:11.402Z,99.99
2017-05-15T08:10:51.991Z,99.99
2017-05-15T08:11:32.570Z,99.99
2017-05-15T08:12:13.154Z,99.99
2017-05-15T08:12:53.805Z,99.99
2017-05-15T08:13:34.390Z,99.99
2017-05-15T08:14:15.007Z,99.99
2017-05-15T08:14:55.589Z,99.99
2017-05-15T08:15:36.171Z,99.99
2017-05-15T08:16:16.761Z,99.99
2017-05-15T08:16:57.413Z,99.99
2017-05-15T08:17:37.992Z,99.99
2017-05-15T08:18:18.575Z,99.99
2017-05-15T08:18:59.160Z,99.99
2017-05-15T08:19:39.767Z,99.99
2017-05-15T08:20:20.436Z,99.99
2017-05-15T08:21:01.010Z,99.99
2017-05-15T08:21:41.607Z,99.99
2017-05-15T08:22:22.245Z,99.99
2017-05-15T08:23:02.837Z,99.99
2017-05-15T08:23:43.434Z,99.99
2017-05-15T08:24:24.038Z,99.99
2017-05-15T08:25:04.630Z,99.99
2017-05-15T08:25:45.238Z,99.99
2017-05-15T08:26:25.830Z,99.99
2017-05-15T08:27:06.455Z,99.99
2017-05-15T08:27:46.997Z,99.99
2017-05-15T08:28:27.580Z,99.99
2017-05-15T08:29:08.160Z,99.99
2017-05-15T08:29:48.759Z,99.99
2017-05-15T08:30:29.386Z,99.99
2017-05-15T08:31:10.055Z,99.99
2017-05-15T08:31:50.654Z,99.99
2017-05-15T08:32:31.236Z,99.99
2017-05-15T08:33:11.814Z,99.99
2017-05-15T08:33:52.442Z,99.99
2017-05-15T08:34:33.057Z,99.99
2017-05-15T08:35:13.678Z,99.99
2017-05-15T08:35:54.256Z,99.99
2017-05-15T08:36:34.882Z,99.99
2017-05-15T08:37:15.529Z,99.99
2017-05-15T08:37:56.115Z,99.99
2017-05-15T08:38:36.698Z,99.99
2017-05-15T08:39:17.279Z,99.99
2017-05-15T08:39:57.867Z,99.99
2017-05-15T08:40:38.444Z,99.99
2017-05-15T08:41:19.038Z,99.99
2017-05-15T08:41:59.624Z,99.99
2017-05-15T08:42:40.207Z,99.99
2017-05-15T08:43:20.794Z,99.99
2017-05-15T08:44:01.383Z,99.99
2017-05-15T08:44:41.983Z,99.99